sensor_id;sensor_type;location;lat;lon;timestamp;P1;durP1;ratioP1;P2;durP2;ratioP2
8407;SDS011;4241;48.452;9.216;2024-02-15T00:02:07;447.93;;;138.97;;
8407;SDS011;4241;48.452;9.216;2024-02-15T00:04:34;442.17;;;135.80;;
8407;SDS011;4241;48.452;9.216;2024-02-15T00:07:03;444.10;;;135.70;;
8407;SDS011;4241;48.452;9.216;2024-02-15T00:09:30;441.30;;;134.43;;
8407;SDS011;4241;48.452;9.216;2024-02-15T00:11:57;443.60;;;136.63;;
8407;SDS011;4241;48.452;9.216;2024-02-15T00:14:24;437.33;;;130.73;;
8407;SDS011;4241;48.452;9.216;2024-02-15T00:16:51;444.80;;;135.30;;
8407;SDS011;4241;48.452;9.216;2024-02-15T00:19:18;442.23;;;133.80;;
8407;SDS011;4241;48.452;9.216;2024-02-15T00:21:46;442.90;;;134.47;;
8407;SDS011;4241;48.452;9.216;2024-02-15T00:24:15;443.07;;;134.67;;
8407;SDS011;4241;48.452;9.216;2024-02-15T00:26:42;444.03;;;135.67;;
8407;SDS011;4241;48.452;9.216;2024-02-15T00:29:08;437.80;;;130.60;;
8407;SDS011;4241;48.452;9.216;2024-02-15T00:31:36;445.17;;;137.27;;
8407;SDS011;4241;48.452;9.216;2024-02-15T00:34:03;439.43;;;132.83;;
8407;SDS011;4241;48.452;9.216;2024-02-15T00:36:30;441.40;;;133.50;;
8407;SDS011;4241;48.452;9.216;2024-02-15T00:38:58;438.97;;;132.47;;
8407;SDS011;4241;48.452;9.216;2024-02-15T00:41:26;447.20;;;138.63;;
8407;SDS011;4241;48.452;9.216;2024-02-15T00:43:53;443.50;;;136.43;;
8407;SDS011;4241;48.452;9.216;2024-02-15T00:46:20;442.30;;;133.90;;
8407;SDS011;4241;48.452;9.216;2024-02-15T00:48:47;440.10;;;133.50;;
8407;SDS011;4241;48.452;9.216;2024-02-15T00:51:14;446.07;;;136.43;;
8407;SDS011;4241;48.452;9.216;2024-02-15T00:53:40;438.80;;;131.30;;
8407;SDS011;4241;48.452;9.216;2024-02-15T00:56:07;452.13;;;143.43;;
8407;SDS011;4241;48.452;9.216;2024-02-15T00:58:35;440.83;;;134.00;;
8407;SDS011;4241;48.452;9.216;2024-02-15T01:01:02;445.80;;;137.20;;
8407;SDS011;4241;48.452;9.216;2024-02-15T01:03:29;437.30;;;131.33;;
8407;SDS011;4241;48.452;9.216;2024-02-15T01:05:56;446.63;;;138.17;;
8407;SDS011;4241;48.452;9.216;2024-02-15T01:08:23;439.63;;;131.93;;
8407;SDS011;4241;48.452;9.216;2024-02-15T01:10:50;444.43;;;135.30;;
8407;SDS011;4241;48.452;9.216;2024-02-15T01:13:18;441.23;;;133.63;;
8407;SDS011;4241;48.452;9.216;2024-02-15T01:15:46;444.30;;;136.90;;
8407;SDS011;4241;48.452;9.216;2024-02-15T01:18:13;435.40;;;130.37;;
8407;SDS011;4241;48.452;9.216;2024-02-15T01:20:40;442.77;;;135.97;;
8407;SDS011;4241;48.452;9.216;2024-02-15T01:23:07;445.27;;;137.37;;
8407;SDS011;4241;48.452;9.216;2024-02-15T01:25:34;443.27;;;135.50;;
8407;SDS011;4241;48.452;9.216;2024-02-15T01:28:00;440.27;;;133.20;;
8407;SDS011;4241;48.452;9.216;2024-02-15T01:30:28;440.13;;;132.60;;
8407;SDS011;4241;48.452;9.216;2024-02-15T01:32:56;439.00;;;132.20;;
8407;SDS011;4241;48.452;9.216;2024-02-15T01:35:25;440.87;;;133.67;;
8407;SDS011;4241;48.452;9.216;2024-02-15T01:37:53;436.90;;;130.77;;
8407;SDS011;4241;48.452;9.216;2024-02-15T01:40:20;443.57;;;135.33;;
8407;SDS011;4241;48.452;9.216;2024-02-15T01:42:47;438.07;;;130.90;;
8407;SDS011;4241;48.452;9.216;2024-02-15T01:45:14;439.23;;;132.03;;
8407;SDS011;4241;48.452;9.216;2024-02-15T01:47:41;434.83;;;130.33;;
8407;SDS011;4241;48.452;9.216;2024-02-15T01:50:10;443.27;;;134.93;;
8407;SDS011;4241;48.452;9.216;2024-02-15T01:52:39;435.67;;;129.87;;
8407;SDS011;4241;48.452;9.216;2024-02-15T01:55:12;440.53;;;132.33;;
8407;SDS011;4241;48.452;9.216;2024-02-15T01:57:40;433.83;;;128.30;;
8407;SDS011;4241;48.452;9.216;2024-02-15T02:00:10;438.27;;;132.07;;
8407;SDS011;4241;48.452;9.216;2024-02-15T02:02:39;432.93;;;128.00;;
8407;SDS011;4241;48.452;9.216;2024-02-15T02:05:08;436.77;;;129.70;;
8407;SDS011;4241;48.452;9.216;2024-02-15T02:07:36;429.50;;;125.50;;
8407;SDS011;4241;48.452;9.216;2024-02-15T02:10:04;435.63;;;130.10;;
8407;SDS011;4241;48.452;9.216;2024-02-15T02:12:31;432.33;;;128.03;;
8407;SDS011;4241;48.452;9.216;2024-02-15T02:14:58;436.47;;;130.63;;
8407;SDS011;4241;48.452;9.216;2024-02-15T02:17:25;430.97;;;126.53;;
8407;SDS011;4241;48.452;9.216;2024-02-15T02:19:52;430.00;;;124.97;;
8407;SDS011;4241;48.452;9.216;2024-02-15T02:22:19;431.87;;;127.07;;
8407;SDS011;4241;48.452;9.216;2024-02-15T02:24:56;431.77;;;127.07;;
8407;SDS011;4241;48.452;9.216;2024-02-15T02:27:26;435.40;;;130.07;;
8407;SDS011;4241;48.452;9.216;2024-02-15T02:29:53;432.93;;;127.93;;
8407;SDS011;4241;48.452;9.216;2024-02-15T02:32:21;436.57;;;130.73;;
8407;SDS011;4241;48.452;9.216;2024-02-15T02:34:47;427.93;;;124.43;;
8407;SDS011;4241;48.452;9.216;2024-02-15T02:37:14;437.70;;;131.53;;
8407;SDS011;4241;48.452;9.216;2024-02-15T02:39:42;429.20;;;125.57;;
8407;SDS011;4241;48.452;9.216;2024-02-15T02:42:10;438.60;;;134.07;;
8407;SDS011;4241;48.452;9.216;2024-02-15T02:44:38;430.30;;;125.70;;
8407;SDS011;4241;48.452;9.216;2024-02-15T02:47:04;434.13;;;129.70;;
8407;SDS011;4241;48.452;9.216;2024-02-15T02:49:31;429.33;;;125.77;;
8407;SDS011;4241;48.452;9.216;2024-02-15T02:51:58;433.83;;;130.37;;
8407;SDS011;4241;48.452;9.216;2024-02-15T02:54:25;432.13;;;129.03;;
8407;SDS011;4241;48.452;9.216;2024-02-15T02:56:54;439.50;;;132.23;;
8407;SDS011;4241;48.452;9.216;2024-02-15T02:59:22;425.90;;;123.70;;
8407;SDS011;4241;48.452;9.216;2024-02-15T03:01:50;438.00;;;131.73;;
8407;SDS011;4241;48.452;9.216;2024-02-15T03:04:18;425.77;;;122.97;;
8407;SDS011;4241;48.452;9.216;2024-02-15T03:06:44;437.83;;;131.07;;
8407;SDS011;4241;48.452;9.216;2024-02-15T03:09:12;429.57;;;126.10;;
8407;SDS011;4241;48.452;9.216;2024-02-15T03:11:39;431.80;;;127.07;;
8407;SDS011;4241;48.452;9.216;2024-02-15T03:14:06;426.80;;;124.77;;
8407;SDS011;4241;48.452;9.216;2024-02-15T03:16:34;437.53;;;130.77;;
8407;SDS011;4241;48.452;9.216;2024-02-15T03:19:01;429.97;;;127.53;;
8407;SDS011;4241;48.452;9.216;2024-02-15T03:21:28;432.07;;;128.70;;
8407;SDS011;4241;48.452;9.216;2024-02-15T03:23:55;426.60;;;125.40;;
8407;SDS011;4241;48.452;9.216;2024-02-15T03:26:28;434.17;;;128.47;;
8407;SDS011;4241;48.452;9.216;2024-02-15T03:29:02;424.67;;;124.17;;
8407;SDS011;4241;48.452;9.216;2024-02-15T03:31:28;428.53;;;126.33;;
8407;SDS011;4241;48.452;9.216;2024-02-15T03:33:57;426.20;;;124.93;;
8407;SDS011;4241;48.452;9.216;2024-02-15T03:36:24;424.87;;;124.33;;
8407;SDS011;4241;48.452;9.216;2024-02-15T03:38:52;427.07;;;126.13;;
8407;SDS011;4241;48.452;9.216;2024-02-15T03:41:19;423.33;;;122.40;;
8407;SDS011;4241;48.452;9.216;2024-02-15T03:43:46;423.53;;;123.27;;
8407;SDS011;4241;48.452;9.216;2024-02-15T03:46:12;425.27;;;123.57;;
8407;SDS011;4241;48.452;9.216;2024-02-15T03:48:41;423.70;;;124.07;;
8407;SDS011;4241;48.452;9.216;2024-02-15T03:51:15;424.73;;;124.00;;
8407;SDS011;4241;48.452;9.216;2024-02-15T03:53:43;427.90;;;125.17;;
8407;SDS011;4241;48.452;9.216;2024-02-15T03:56:10;437.07;;;133.80;;
8407;SDS011;4241;48.452;9.216;2024-02-15T03:58:37;431.30;;;128.33;;
8407;SDS011;4241;48.452;9.216;2024-02-15T04:01:04;425.03;;;124.43;;
8407;SDS011;4241;48.452;9.216;2024-02-15T04:03:35;428.83;;;127.73;;
8407;SDS011;4241;48.452;9.216;2024-02-15T04:06:01;424.90;;;124.70;;
8407;SDS011;4241;48.452;9.216;2024-02-15T04:08:30;431.00;;;128.53;;
8407;SDS011;4241;48.452;9.216;2024-02-15T04:10:58;419.43;;;121.23;;
8407;SDS011;4241;48.452;9.216;2024-02-15T04:13:25;431.80;;;128.60;;
8407;SDS011;4241;48.452;9.216;2024-02-15T04:15:52;426.10;;;125.70;;
8407;SDS011;4241;48.452;9.216;2024-02-15T04:18:19;432.47;;;128.93;;
8407;SDS011;4241;48.452;9.216;2024-02-15T04:20:45;417.70;;;119.43;;
8407;SDS011;4241;48.452;9.216;2024-02-15T04:23:13;437.53;;;134.47;;
8407;SDS011;4241;48.452;9.216;2024-02-15T04:25:42;424.63;;;124.70;;
8407;SDS011;4241;48.452;9.216;2024-02-15T04:28:15;429.50;;;126.70;;
8407;SDS011;4241;48.452;9.216;2024-02-15T04:30:42;424.63;;;122.90;;
8407;SDS011;4241;48.452;9.216;2024-02-15T04:33:10;432.70;;;129.77;;
8407;SDS011;4241;48.452;9.216;2024-02-15T04:35:37;426.10;;;124.20;;
8407;SDS011;4241;48.452;9.216;2024-02-15T04:38:04;432.87;;;130.60;;
8407;SDS011;4241;48.452;9.216;2024-02-15T04:40:33;423.53;;;122.57;;
8407;SDS011;4241;48.452;9.216;2024-02-15T04:43:01;430.80;;;127.57;;
8407;SDS011;4241;48.452;9.216;2024-02-15T04:45:29;423.07;;;122.63;;
8407;SDS011;4241;48.452;9.216;2024-02-15T04:47:57;430.43;;;127.60;;
8407;SDS011;4241;48.452;9.216;2024-02-15T04:50:26;427.93;;;126.63;;
8407;SDS011;4241;48.452;9.216;2024-02-15T04:52:54;426.77;;;125.10;;
8407;SDS011;4241;48.452;9.216;2024-02-15T04:55:21;424.27;;;123.17;;
8407;SDS011;4241;48.452;9.216;2024-02-15T04:57:48;426.87;;;124.67;;
8407;SDS011;4241;48.452;9.216;2024-02-15T05:00:21;430.23;;;127.50;;
8407;SDS011;4241;48.452;9.216;2024-02-15T05:02:50;428.80;;;126.50;;
8407;SDS011;4241;48.452;9.216;2024-02-15T05:05:17;432.70;;;130.17;;
8407;SDS011;4241;48.452;9.216;2024-02-15T05:07:44;429.60;;;125.53;;
8407;SDS011;4241;48.452;9.216;2024-02-15T05:10:14;430.53;;;126.63;;
8407;SDS011;4241;48.452;9.216;2024-02-15T05:12:41;423.07;;;121.83;;
8407;SDS011;4241;48.452;9.216;2024-02-15T05:15:09;432.17;;;128.83;;
8407;SDS011;4241;48.452;9.216;2024-02-15T05:17:37;427.37;;;126.20;;
8407;SDS011;4241;48.452;9.216;2024-02-15T05:20:06;432.73;;;129.13;;
8407;SDS011;4241;48.452;9.216;2024-02-15T05:22:36;426.20;;;125.23;;
8407;SDS011;4241;48.452;9.216;2024-02-15T05:25:04;434.93;;;130.50;;
8407;SDS011;4241;48.452;9.216;2024-02-15T05:27:33;426.87;;;125.40;;
8407;SDS011;4241;48.452;9.216;2024-02-15T05:29:59;435.13;;;131.30;;
8407;SDS011;4241;48.452;9.216;2024-02-15T05:32:25;426.40;;;126.03;;
8407;SDS011;4241;48.452;9.216;2024-02-15T05:34:54;433.13;;;129.70;;
8407;SDS011;4241;48.452;9.216;2024-02-15T05:37:21;425.93;;;126.07;;
8407;SDS011;4241;48.452;9.216;2024-02-15T05:39:48;430.23;;;127.90;;
8407;SDS011;4241;48.452;9.216;2024-02-15T05:42:19;427.47;;;126.87;;
8407;SDS011;4241;48.452;9.216;2024-02-15T05:44:45;428.97;;;127.33;;
8407;SDS011;4241;48.452;9.216;2024-02-15T05:47:12;424.97;;;125.83;;
8407;SDS011;4241;48.452;9.216;2024-02-15T05:49:39;432.57;;;129.67;;
8407;SDS011;4241;48.452;9.216;2024-02-15T05:52:07;425.73;;;126.07;;
8407;SDS011;4241;48.452;9.216;2024-02-15T05:54:34;430.37;;;129.67;;
8407;SDS011;4241;48.452;9.216;2024-02-15T05:57:01;425.77;;;126.83;;
8407;SDS011;4241;48.452;9.216;2024-02-15T05:59:28;428.67;;;128.13;;
8407;SDS011;4241;48.452;9.216;2024-02-15T06:01:54;423.40;;;124.47;;
8407;SDS011;4241;48.452;9.216;2024-02-15T06:04:21;431.03;;;130.50;;
8407;SDS011;4241;48.452;9.216;2024-02-15T06:06:50;422.57;;;124.73;;
8407;SDS011;4241;48.452;9.216;2024-02-15T06:09:20;430.43;;;129.93;;
8407;SDS011;4241;48.452;9.216;2024-02-15T06:11:50;422.50;;;124.13;;
8407;SDS011;4241;48.452;9.216;2024-02-15T06:14:20;423.37;;;125.57;;
8407;SDS011;4241;48.452;9.216;2024-02-15T06:16:47;421.03;;;124.07;;
8407;SDS011;4241;48.452;9.216;2024-02-15T06:19:14;425.03;;;125.20;;
8407;SDS011;4241;48.452;9.216;2024-02-15T06:21:41;419.50;;;122.30;;
8407;SDS011;4241;48.452;9.216;2024-02-15T06:24:08;424.27;;;125.10;;
8407;SDS011;4241;48.452;9.216;2024-02-15T06:26:36;418.27;;;121.57;;
8407;SDS011;4241;48.452;9.216;2024-02-15T06:29:04;423.13;;;125.93;;
8407;SDS011;4241;48.452;9.216;2024-02-15T06:31:48;427.63;;;127.80;;
8407;SDS011;4241;48.452;9.216;2024-02-15T06:34:32;424.83;;;126.60;;
8407;SDS011;4241;48.452;9.216;2024-02-15T06:40:19;418.20;;;121.50;;
8407;SDS011;4241;48.452;9.216;2024-02-15T06:42:47;422.97;;;125.43;;
8407;SDS011;4241;48.452;9.216;2024-02-15T06:45:14;418.63;;;122.93;;
8407;SDS011;4241;48.452;9.216;2024-02-15T06:47:41;422.57;;;125.17;;
8407;SDS011;4241;48.452;9.216;2024-02-15T06:50:09;419.77;;;123.60;;
8407;SDS011;4241;48.452;9.216;2024-02-15T06:52:36;420.07;;;124.20;;
8407;SDS011;4241;48.452;9.216;2024-02-15T06:55:05;421.20;;;123.67;;
8407;SDS011;4241;48.452;9.216;2024-02-15T06:57:34;418.80;;;122.30;;
8407;SDS011;4241;48.452;9.216;2024-02-15T07:00:03;422.47;;;125.73;;
8407;SDS011;4241;48.452;9.216;2024-02-15T07:02:32;422.00;;;124.03;;
8407;SDS011;4241;48.452;9.216;2024-02-15T07:04:59;427.87;;;128.87;;
8407;SDS011;4241;48.452;9.216;2024-02-15T07:07:28;420.77;;;123.73;;
8407;SDS011;4241;48.452;9.216;2024-02-15T07:09:55;425.50;;;127.40;;
8407;SDS011;4241;48.452;9.216;2024-02-15T07:12:22;421.80;;;124.60;;
8407;SDS011;4241;48.452;9.216;2024-02-15T07:14:49;427.53;;;128.63;;
8407;SDS011;4241;48.452;9.216;2024-02-15T07:17:17;424.27;;;126.37;;
8407;SDS011;4241;48.452;9.216;2024-02-15T07:19:44;427.87;;;127.37;;
8407;SDS011;4241;48.452;9.216;2024-02-15T07:22:14;429.23;;;128.17;;
8407;SDS011;4241;48.452;9.216;2024-02-15T07:24:41;430.53;;;129.37;;
8407;SDS011;4241;48.452;9.216;2024-02-15T07:27:08;424.27;;;126.13;;
8407;SDS011;4241;48.452;9.216;2024-02-15T07:29:36;436.77;;;133.37;;
8407;SDS011;4241;48.452;9.216;2024-02-15T07:32:03;430.57;;;129.30;;
8407;SDS011;4241;48.452;9.216;2024-02-15T07:34:32;431.80;;;130.00;;
8407;SDS011;4241;48.452;9.216;2024-02-15T07:36:59;425.27;;;125.60;;
8407;SDS011;4241;48.452;9.216;2024-02-15T07:39:28;434.67;;;130.43;;
8407;SDS011;4241;48.452;9.216;2024-02-15T07:41:55;428.07;;;127.13;;
8407;SDS011;4241;48.452;9.216;2024-02-15T07:44:23;436.90;;;133.90;;
8407;SDS011;4241;48.452;9.216;2024-02-15T07:46:50;431.10;;;128.00;;
8407;SDS011;4241;48.452;9.216;2024-02-15T07:49:17;438.13;;;132.43;;
8407;SDS011;4241;48.452;9.216;2024-02-15T07:51:45;428.47;;;126.87;;
8407;SDS011;4241;48.452;9.216;2024-02-15T07:54:17;434.27;;;130.97;;
8407;SDS011;4241;48.452;9.216;2024-02-15T07:56:45;425.03;;;124.67;;
8407;SDS011;4241;48.452;9.216;2024-02-15T07:59:13;437.30;;;132.67;;
8407;SDS011;4241;48.452;9.216;2024-02-15T08:01:41;427.60;;;126.30;;
8407;SDS011;4241;48.452;9.216;2024-02-15T08:04:08;433.47;;;128.80;;
8407;SDS011;4241;48.452;9.216;2024-02-15T08:06:35;428.93;;;126.17;;
8407;SDS011;4241;48.452;9.216;2024-02-15T08:09:04;435.27;;;131.70;;
8407;SDS011;4241;48.452;9.216;2024-02-15T08:11:31;431.10;;;128.27;;
8407;SDS011;4241;48.452;9.216;2024-02-15T08:13:58;436.80;;;132.00;;
8407;SDS011;4241;48.452;9.216;2024-02-15T08:16:25;430.33;;;126.77;;
8407;SDS011;4241;48.452;9.216;2024-02-15T08:18:53;440.30;;;134.00;;
8407;SDS011;4241;48.452;9.216;2024-02-15T08:21:24;434.97;;;130.20;;
8407;SDS011;4241;48.452;9.216;2024-02-15T08:23:53;440.33;;;132.40;;
8407;SDS011;4241;48.452;9.216;2024-02-15T08:26:22;440.57;;;133.10;;
8407;SDS011;4241;48.452;9.216;2024-02-15T08:28:48;438.90;;;132.87;;
8407;SDS011;4241;48.452;9.216;2024-02-15T08:31:15;443.30;;;136.37;;
8407;SDS011;4241;48.452;9.216;2024-02-15T08:33:44;443.97;;;136.97;;
8407;SDS011;4241;48.452;9.216;2024-02-15T08:36:11;441.77;;;134.83;;
8407;SDS011;4241;48.452;9.216;2024-02-15T08:38:39;446.63;;;138.23;;
8407;SDS011;4241;48.452;9.216;2024-02-15T08:41:07;445.63;;;136.80;;
8407;SDS011;4241;48.452;9.216;2024-02-15T08:43:37;444.70;;;137.37;;
8407;SDS011;4241;48.452;9.216;2024-02-15T08:46:06;448.37;;;139.73;;
8407;SDS011;4241;48.452;9.216;2024-02-15T08:48:33;446.27;;;138.83;;
8407;SDS011;4241;48.452;9.216;2024-02-15T08:51:00;453.30;;;144.73;;
8407;SDS011;4241;48.452;9.216;2024-02-15T08:53:27;444.10;;;137.50;;
8407;SDS011;4241;48.452;9.216;2024-02-15T08:55:54;452.10;;;142.40;;
8407;SDS011;4241;48.452;9.216;2024-02-15T08:58:21;448.27;;;141.73;;
8407;SDS011;4241;48.452;9.216;2024-02-15T09:00:49;454.77;;;145.13;;
8407;SDS011;4241;48.452;9.216;2024-02-15T09:03:16;453.03;;;144.63;;
8407;SDS011;4241;48.452;9.216;2024-02-15T09:05:43;455.47;;;146.07;;
8407;SDS011;4241;48.452;9.216;2024-02-15T09:08:10;450.30;;;142.97;;
8407;SDS011;4241;48.452;9.216;2024-02-15T09:10:37;456.00;;;147.13;;
8407;SDS011;4241;48.452;9.216;2024-02-15T09:13:04;453.40;;;145.27;;
8407;SDS011;4241;48.452;9.216;2024-02-15T09:15:34;457.43;;;148.13;;
8407;SDS011;4241;48.452;9.216;2024-02-15T09:18:02;451.03;;;144.43;;
8407;SDS011;4241;48.452;9.216;2024-02-15T09:20:30;458.23;;;148.03;;
8407;SDS011;4241;48.452;9.216;2024-02-15T09:22:58;455.93;;;148.87;;
8407;SDS011;4241;48.452;9.216;2024-02-15T09:25:29;460.97;;;152.07;;
8407;SDS011;4241;48.452;9.216;2024-02-15T09:27:56;453.57;;;147.00;;
8407;SDS011;4241;48.452;9.216;2024-02-15T09:30:23;459.17;;;151.40;;
8407;SDS011;4241;48.452;9.216;2024-02-15T09:32:53;453.50;;;147.80;;
8407;SDS011;4241;48.452;9.216;2024-02-15T09:35:21;462.13;;;155.67;;
8407;SDS011;4241;48.452;9.216;2024-02-15T09:37:48;454.70;;;150.17;;
8407;SDS011;4241;48.452;9.216;2024-02-15T09:40:17;458.60;;;155.37;;
8407;SDS011;4241;48.452;9.216;2024-02-15T09:42:44;454.53;;;151.77;;
8407;SDS011;4241;48.452;9.216;2024-02-15T09:45:13;462.57;;;158.27;;
8407;SDS011;4241;48.452;9.216;2024-02-15T09:47:41;457.80;;;155.77;;
8407;SDS011;4241;48.452;9.216;2024-02-15T09:50:09;461.43;;;158.77;;
8407;SDS011;4241;48.452;9.216;2024-02-15T09:52:40;457.27;;;154.73;;
8407;SDS011;4241;48.452;9.216;2024-02-15T09:55:16;460.27;;;158.60;;
8407;SDS011;4241;48.452;9.216;2024-02-15T09:57:43;468.07;;;164.27;;
8407;SDS011;4241;48.452;9.216;2024-02-15T10:00:11;462.30;;;161.40;;
8407;SDS011;4241;48.452;9.216;2024-02-15T10:02:40;465.57;;;163.33;;
8407;SDS011;4241;48.452;9.216;2024-02-15T10:05:07;463.63;;;163.33;;
8407;SDS011;4241;48.452;9.216;2024-02-15T10:07:36;472.37;;;168.40;;
8407;SDS011;4241;48.452;9.216;2024-02-15T10:10:15;464.03;;;164.37;;
8407;SDS011;4241;48.452;9.216;2024-02-15T10:12:44;463.47;;;162.57;;
8407;SDS011;4241;48.452;9.216;2024-02-15T10:15:14;465.07;;;164.07;;
8407;SDS011;4241;48.452;9.216;2024-02-15T10:17:55;464.60;;;166.63;;
8407;SDS011;4241;48.452;9.216;2024-02-15T10:20:22;468.10;;;168.93;;
8407;SDS011;4241;48.452;9.216;2024-02-15T10:22:51;467.50;;;168.37;;
8407;SDS011;4241;48.452;9.216;2024-02-15T10:25:21;470.03;;;171.13;;
8407;SDS011;4241;48.452;9.216;2024-02-15T10:27:48;465.63;;;168.47;;
8407;SDS011;4241;48.452;9.216;2024-02-15T10:30:16;473.20;;;176.47;;
8407;SDS011;4241;48.452;9.216;2024-02-15T10:32:44;465.73;;;171.73;;
8407;SDS011;4241;48.452;9.216;2024-02-15T10:35:18;470.07;;;175.97;;
8407;SDS011;4241;48.452;9.216;2024-02-15T10:37:47;467.70;;;172.63;;
8407;SDS011;4241;48.452;9.216;2024-02-15T10:40:17;469.17;;;175.53;;
8407;SDS011;4241;48.452;9.216;2024-02-15T10:42:46;470.70;;;178.40;;
8407;SDS011;4241;48.452;9.216;2024-02-15T10:45:14;470.93;;;176.27;;
8407;SDS011;4241;48.452;9.216;2024-02-15T10:47:43;477.73;;;185.33;;
8407;SDS011;4241;48.452;9.216;2024-02-15T10:50:12;474.13;;;182.20;;
8407;SDS011;4241;48.452;9.216;2024-02-15T10:52:43;476.40;;;183.43;;
8407;SDS011;4241;48.452;9.216;2024-02-15T10:55:15;472.73;;;182.10;;
8407;SDS011;4241;48.452;9.216;2024-02-15T10:57:50;474.97;;;184.47;;
8407;SDS011;4241;48.452;9.216;2024-02-15T11:00:18;470.23;;;184.13;;
8407;SDS011;4241;48.452;9.216;2024-02-15T11:02:54;473.93;;;185.73;;
8407;SDS011;4241;48.452;9.216;2024-02-15T11:05:29;480.97;;;191.30;;
8407;SDS011;4241;48.452;9.216;2024-02-15T11:07:59;475.77;;;189.43;;
8407;SDS011;4241;48.452;9.216;2024-02-15T11:10:29;479.83;;;192.03;;
8407;SDS011;4241;48.452;9.216;2024-02-15T11:12:58;474.43;;;185.77;;
8407;SDS011;4241;48.452;9.216;2024-02-15T11:15:39;475.33;;;187.83;;
8407;SDS011;4241;48.452;9.216;2024-02-15T11:18:10;480.13;;;189.60;;
8407;SDS011;4241;48.452;9.216;2024-02-15T11:20:46;475.27;;;189.80;;
8407;SDS011;4241;48.452;9.216;2024-02-15T11:23:24;473.37;;;185.40;;
8407;SDS011;4241;48.452;9.216;2024-02-15T11:25:53;475.17;;;190.47;;
8407;SDS011;4241;48.452;9.216;2024-02-15T11:37:09;478.43;;;197.13;;
8407;SDS011;4241;48.452;9.216;2024-02-15T11:40:03;477.30;;;197.07;;
8407;SDS011;4241;48.452;9.216;2024-02-15T11:42:34;480.10;;;199.93;;
8407;SDS011;4241;48.452;9.216;2024-02-15T11:45:05;485.10;;;203.90;;
8407;SDS011;4241;48.452;9.216;2024-02-15T11:47:33;483.67;;;205.70;;
8407;SDS011;4241;48.452;9.216;2024-02-15T11:50:05;480.93;;;203.87;;
8407;SDS011;4241;48.452;9.216;2024-02-15T11:52:33;486.37;;;208.73;;
8407;SDS011;4241;48.452;9.216;2024-02-15T11:55:06;478.30;;;201.57;;
8407;SDS011;4241;48.452;9.216;2024-02-15T11:57:35;481.57;;;201.37;;
8407;SDS011;4241;48.452;9.216;2024-02-15T12:00:20;480.30;;;201.67;;
8407;SDS011;4241;48.452;9.216;2024-02-15T12:03:05;476.80;;;195.60;;
8407;SDS011;4241;48.452;9.216;2024-02-15T12:05:49;472.57;;;190.63;;
8407;SDS011;4241;48.452;9.216;2024-02-15T12:08:34;479.90;;;198.23;;
8407;SDS011;4241;48.452;9.216;2024-02-15T12:11:19;481.50;;;197.97;;
8407;SDS011;4241;48.452;9.216;2024-02-15T12:14:03;481.67;;;198.33;;
8407;SDS011;4241;48.452;9.216;2024-02-15T12:16:48;470.73;;;187.63;;
8407;SDS011;4241;48.452;9.216;2024-02-15T12:19:43;472.23;;;189.17;;
8407;SDS011;4241;48.452;9.216;2024-02-15T12:22:09;481.10;;;198.03;;
8407;SDS011;4241;48.452;9.216;2024-02-15T12:24:35;474.93;;;193.97;;
8407;SDS011;4241;48.452;9.216;2024-02-15T12:27:02;477.90;;;199.37;;
8407;SDS011;4241;48.452;9.216;2024-02-15T12:29:30;473.10;;;192.53;;
8407;SDS011;4241;48.452;9.216;2024-02-15T12:31:59;478.60;;;198.10;;
8407;SDS011;4241;48.452;9.216;2024-02-15T12:34:26;474.80;;;193.90;;
8407;SDS011;4241;48.452;9.216;2024-02-15T12:37:05;477.83;;;195.93;;
8407;SDS011;4241;48.452;9.216;2024-02-15T12:39:34;479.73;;;197.17;;
8407;SDS011;4241;48.452;9.216;2024-02-15T12:42:02;480.90;;;198.87;;
8407;SDS011;4241;48.452;9.216;2024-02-15T12:44:29;480.53;;;197.07;;
8407;SDS011;4241;48.452;9.216;2024-02-15T12:47:00;475.20;;;192.10;;
8407;SDS011;4241;48.452;9.216;2024-02-15T12:49:28;480.40;;;197.10;;
8407;SDS011;4241;48.452;9.216;2024-02-15T12:55:12;477.30;;;192.57;;
8407;SDS011;4241;48.452;9.216;2024-02-15T12:57:40;471.33;;;188.80;;
8407;SDS011;4241;48.452;9.216;2024-02-15T13:00:10;479.37;;;195.97;;
8407;SDS011;4241;48.452;9.216;2024-02-15T13:02:44;480.73;;;197.80;;
8407;SDS011;4241;48.452;9.216;2024-02-15T13:05:11;481.40;;;197.60;;
8407;SDS011;4241;48.452;9.216;2024-02-15T13:07:39;473.83;;;189.90;;
8407;SDS011;4241;48.452;9.216;2024-02-15T13:10:06;479.67;;;193.87;;
8407;SDS011;4241;48.452;9.216;2024-02-15T13:12:34;475.30;;;192.37;;
8407;SDS011;4241;48.452;9.216;2024-02-15T13:15:03;480.00;;;195.90;;
8407;SDS011;4241;48.452;9.216;2024-02-15T13:17:31;474.57;;;192.30;;
8407;SDS011;4241;48.452;9.216;2024-02-15T13:20:00;478.07;;;192.83;;
8407;SDS011;4241;48.452;9.216;2024-02-15T13:22:35;474.33;;;188.43;;
8407;SDS011;4241;48.452;9.216;2024-02-15T13:25:04;475.00;;;189.67;;
8407;SDS011;4241;48.452;9.216;2024-02-15T13:27:32;479.70;;;197.50;;
8407;SDS011;4241;48.452;9.216;2024-02-15T13:29:59;478.30;;;195.17;;
8407;SDS011;4241;48.452;9.216;2024-02-15T13:32:26;479.13;;;195.77;;
8407;SDS011;4241;48.452;9.216;2024-02-15T13:34:53;478.40;;;195.13;;
8407;SDS011;4241;48.452;9.216;2024-02-15T13:37:22;475.80;;;191.80;;
8407;SDS011;4241;48.452;9.216;2024-02-15T13:39:49;476.70;;;195.00;;
8407;SDS011;4241;48.452;9.216;2024-02-15T13:42:16;478.70;;;196.33;;
8407;SDS011;4241;48.452;9.216;2024-02-15T13:44:44;479.47;;;194.37;;
8407;SDS011;4241;48.452;9.216;2024-02-15T13:47:12;479.53;;;194.50;;
8407;SDS011;4241;48.452;9.216;2024-02-15T13:49:41;472.07;;;189.13;;
8407;SDS011;4241;48.452;9.216;2024-02-15T13:52:08;483.30;;;198.40;;
8407;SDS011;4241;48.452;9.216;2024-02-15T13:54:37;474.80;;;189.87;;
8407;SDS011;4241;48.452;9.216;2024-02-15T13:57:04;479.27;;;196.77;;
8407;SDS011;4241;48.452;9.216;2024-02-15T13:59:32;474.97;;;191.03;;
8407;SDS011;4241;48.452;9.216;2024-02-15T14:01:59;483.77;;;197.77;;
8407;SDS011;4241;48.452;9.216;2024-02-15T14:04:28;474.50;;;190.17;;
8407;SDS011;4241;48.452;9.216;2024-02-15T14:06:57;480.43;;;193.03;;
8407;SDS011;4241;48.452;9.216;2024-02-15T14:09:24;474.60;;;189.27;;
8407;SDS011;4241;48.452;9.216;2024-02-15T14:11:53;481.57;;;196.43;;
8407;SDS011;4241;48.452;9.216;2024-02-15T14:14:20;476.03;;;191.17;;
8407;SDS011;4241;48.452;9.216;2024-02-15T14:16:47;476.60;;;192.13;;
8407;SDS011;4241;48.452;9.216;2024-02-15T14:19:14;474.83;;;189.83;;
8407;SDS011;4241;48.452;9.216;2024-02-15T14:21:41;480.07;;;194.00;;
8407;SDS011;4241;48.452;9.216;2024-02-15T14:24:10;469.80;;;185.07;;
8407;SDS011;4241;48.452;9.216;2024-02-15T14:26:37;480.00;;;197.33;;
8407;SDS011;4241;48.452;9.216;2024-02-15T14:29:05;473.80;;;188.53;;
8407;SDS011;4241;48.452;9.216;2024-02-15T14:31:32;478.00;;;191.83;;
8407;SDS011;4241;48.452;9.216;2024-02-15T14:34:16;479.33;;;193.67;;
8407;SDS011;4241;48.452;9.216;2024-02-15T14:36:45;474.97;;;191.53;;
8407;SDS011;4241;48.452;9.216;2024-02-15T14:39:12;479.43;;;193.03;;
8407;SDS011;4241;48.452;9.216;2024-02-15T14:41:39;472.27;;;186.63;;
8407;SDS011;4241;48.452;9.216;2024-02-15T14:44:09;478.43;;;191.90;;
8407;SDS011;4241;48.452;9.216;2024-02-15T14:46:37;475.17;;;191.13;;